createdAt,value
2023-02-06T00:01:35.839Z,13.77
2023-02-06T00:04:04.099Z,12.55
2023-02-06T00:06:32.342Z,9.95
2023-02-06T00:09:00.346Z,14.00
2023-02-06T00:11:28.312Z,12.60
2023-02-06T00:13:56.287Z,9.88
2023-02-06T00:16:29.809Z,12.55
2023-02-06T00:18:58.835Z,13.32
2023-02-06T00:21:27.662Z,11.48
2023-02-06T00:23:57.694Z,13.18
2023-02-06T00:26:26.260Z,11.57
2023-02-06T00:28:54.634Z,13.00
2023-02-06T00:31:26.082Z,15.32
2023-02-06T00:33:54.099Z,11.55
2023-02-06T00:36:22.180Z,11.43
2023-02-06T00:38:50.254Z,13.13
2023-02-06T00:41:18.166Z,11.75
2023-02-06T00:43:46.022Z,10.25
2023-02-06T00:46:13.743Z,9.48
2023-02-06T00:48:42.335Z,13.52
2023-02-06T00:51:10.313Z,11.73
2023-02-06T00:53:38.622Z,8.52
2023-02-06T00:56:06.547Z,10.52
2023-02-06T00:58:34.754Z,10.77
2023-02-06T01:01:04.249Z,10.70
2023-02-06T01:03:32.280Z,12.00
2023-02-06T01:06:00.442Z,9.57
2023-02-06T01:08:28.343Z,11.93
2023-02-06T01:10:56.151Z,11.05
2023-02-06T01:13:24.100Z,12.95
2023-02-06T01:15:51.975Z,13.20
2023-02-06T01:18:19.927Z,9.63
2023-02-06T01:20:47.848Z,10.98
2023-02-06T01:23:15.626Z,12.18
2023-02-06T01:25:45.345Z,10.45
2023-02-06T01:28:13.176Z,9.93
2023-02-06T01:30:40.953Z,11.50
2023-02-06T01:33:08.765Z,12.45
2023-02-06T01:35:38.263Z,9.75
2023-02-06T01:38:08.566Z,11.63
2023-02-06T01:40:36.649Z,9.48
2023-02-06T01:43:04.534Z,11.20
2023-02-06T01:45:46.495Z,9.70
2023-02-06T01:48:21.676Z,9.68
2023-02-06T01:50:53.328Z,8.90
2023-02-06T01:53:22.896Z,9.23
2023-02-06T01:56:03.432Z,9.43
2023-02-06T01:58:35.304Z,13.07
2023-02-06T02:03:34.829Z,8.43
2023-02-06T02:06:12.452Z,13.98
2023-02-06T02:08:43.005Z,12.40
2023-02-06T02:13:40.659Z,11.48
2023-02-06T02:16:14.158Z,11.10
2023-02-06T02:19:00.597Z,11.23
2023-02-06T02:21:58.938Z,13.25
2023-02-06T02:24:46.263Z,11.85
2023-02-06T02:27:27.864Z,14.18
2023-02-06T02:30:17.449Z,10.25
2023-02-06T02:33:20.698Z,13.80
2023-02-06T02:35:54.114Z,14.70
2023-02-06T02:38:40.127Z,11.23
2023-02-06T02:41:18.112Z,15.23
2023-02-06T02:43:52.039Z,14.05
2023-02-06T02:46:38.015Z,13.02
2023-02-06T02:49:12.519Z,11.35
2023-02-06T02:51:41.220Z,11.40
2023-02-06T02:54:09.833Z,11.90
2023-02-06T02:56:38.472Z,12.80
2023-02-06T02:59:12.091Z,11.27
2023-02-06T03:01:50.730Z,14.75
2023-02-06T03:04:25.629Z,12.13
2023-02-06T03:06:59.460Z,12.07
2023-02-06T03:09:46.463Z,17.10
2023-02-06T03:12:27.217Z,20.00
2023-02-06T03:15:00.481Z,15.93
2023-02-06T03:18:01.207Z,18.98
2023-02-06T03:20:30.382Z,18.33
2023-02-06T03:22:59.604Z,23.85
2023-02-06T03:25:36.767Z,22.02
2023-02-06T03:28:07.493Z,21.52
2023-02-06T03:30:35.931Z,17.30
2023-02-06T03:33:08.439Z,19.90
2023-02-06T03:35:37.944Z,20.40
2023-02-06T03:38:08.231Z,24.42
2023-02-06T03:40:38.612Z,16.83
2023-02-06T03:43:07.158Z,16.63
2023-02-06T03:45:38.915Z,19.92
2023-02-06T03:48:15.505Z,17.20
2023-02-06T03:50:44.575Z,22.30
2023-02-06T03:53:13.401Z,16.67
2023-02-06T03:55:41.818Z,14.85
2023-02-06T03:58:14.067Z,18.13
2023-02-06T04:00:44.442Z,17.67
2023-02-06T04:03:14.166Z,17.27
2023-02-06T04:05:42.561Z,20.67
2023-02-06T04:08:10.458Z,22.10
2023-02-06T04:10:38.324Z,18.65
2023-02-06T04:13:06.345Z,20.45
2023-02-06T04:15:34.823Z,21.65
2023-02-06T04:18:03.933Z,23.38
2023-02-06T04:20:32.777Z,25.55
2023-02-06T04:23:00.984Z,26.15
2023-02-06T04:25:28.769Z,23.38
2023-02-06T04:27:56.795Z,20.35
2023-02-06T04:30:24.972Z,18.70
2023-02-06T04:32:52.928Z,16.42
2023-02-06T04:35:21.048Z,18.48
2023-02-06T04:37:48.956Z,20.33
2023-02-06T04:40:16.928Z,15.90
2023-02-06T04:42:44.718Z,17.65
2023-02-06T04:45:12.766Z,16.60
2023-02-06T04:47:40.562Z,18.73
2023-02-06T04:50:09.016Z,18.00
2023-02-06T04:52:36.824Z,14.63
2023-02-06T04:55:04.549Z,11.25
2023-02-06T04:57:32.244Z,17.55
2023-02-06T04:59:59.913Z,13.32
2023-02-06T05:02:27.728Z,16.65
2023-02-06T05:04:55.488Z,15.35
2023-02-06T05:07:23.467Z,15.27
2023-02-06T05:09:51.384Z,11.15
2023-02-06T05:12:19.365Z,14.85
2023-02-06T05:14:47.133Z,17.90
2023-02-06T05:17:14.933Z,11.75
2023-02-06T05:19:42.714Z,11.93
2023-02-06T05:22:10.494Z,15.65
2023-02-06T05:24:38.225Z,15.10
2023-02-06T05:27:06.223Z,14.02
2023-02-06T05:29:34.082Z,14.80
2023-02-06T05:32:02.061Z,16.40
2023-02-06T05:34:30.080Z,20.58
2023-02-06T05:36:58.033Z,14.57
2023-02-06T05:39:26.760Z,19.10
2023-02-06T05:41:54.582Z,15.40
2023-02-06T05:44:22.541Z,16.10
2023-02-06T05:46:50.246Z,12.98
2023-02-06T05:49:18.256Z,13.57
2023-02-06T05:51:46.355Z,13.82
2023-02-06T05:54:17.177Z,12.70
2023-02-06T05:56:45.513Z,16.30
2023-02-06T05:59:13.496Z,14.70
2023-02-06T06:01:41.332Z,14.10
2023-02-06T06:04:09.419Z,11.95
2023-02-06T06:06:37.414Z,12.30
2023-02-06T06:09:05.296Z,13.23
2023-02-06T06:11:33.601Z,11.55
2023-02-06T06:14:01.784Z,12.27
2023-02-06T06:16:29.660Z,12.50
2023-02-06T06:18:57.635Z,12.75
2023-02-06T06:21:25.479Z,14.90
2023-02-06T06:23:53.548Z,15.20
2023-02-06T06:26:21.356Z,15.15
2023-02-06T06:28:49.368Z,14.55
2023-02-06T06:31:17.456Z,13.27
2023-02-06T06:33:48.480Z,18.13
2023-02-06T06:36:17.661Z,14.57
2023-02-06T06:38:45.601Z,14.40
2023-02-06T06:41:16.563Z,12.88
2023-02-06T06:43:44.750Z,13.57
2023-02-06T06:46:12.780Z,16.02
2023-02-06T06:48:40.796Z,11.23
2023-02-06T06:51:08.870Z,14.63
2023-02-06T06:53:40.203Z,16.38
2023-02-06T06:56:10.856Z,14.65
2023-02-06T06:58:38.867Z,20.63
2023-02-06T07:01:08.762Z,18.42
2023-02-06T07:03:36.933Z,18.10
2023-02-06T07:06:05.277Z,16.15
2023-02-06T07:08:32.969Z,12.48
2023-02-06T07:11:00.911Z,18.02
2023-02-06T07:13:28.864Z,18.05
2023-02-06T07:15:56.711Z,15.68
2023-02-06T07:18:24.684Z,15.63
2023-02-06T07:20:53.542Z,15.25
2023-02-06T07:23:21.364Z,12.32
2023-02-06T07:25:49.761Z,16.33
2023-02-06T07:28:18.093Z,13.43
2023-02-06T07:30:46.223Z,15.90
2023-02-06T07:33:14.032Z,14.55
2023-02-06T07:35:43.733Z,18.08
2023-02-06T07:38:11.512Z,17.48
2023-02-06T07:40:45.039Z,16.08
2023-02-06T07:43:14.045Z,19.98
2023-02-06T07:45:42.411Z,12.40
2023-02-06T07:48:10.371Z,19.65
2023-02-06T07:50:38.369Z,17.40
2023-02-06T07:53:06.526Z,17.75
2023-02-06T07:55:38.043Z,17.00
2023-02-06T07:58:06.247Z,20.23
2023-02-06T08:00:34.153Z,17.17
2023-02-06T08:03:02.002Z,14.07
2023-02-06T08:05:30.070Z,14.13
2023-02-06T08:07:58.298Z,19.33
2023-02-06T08:10:26.314Z,14.30
2023-02-06T08:12:54.136Z,21.77
2023-02-06T08:15:21.954Z,23.15
2023-02-06T08:17:49.712Z,21.92
2023-02-06T08:20:17.953Z,19.30
2023-02-06T08:22:46.966Z,19.55
2023-02-06T08:25:15.641Z,14.27
2023-02-06T08:27:43.466Z,18.17
2023-02-06T08:30:12.206Z,18.02
2023-02-06T08:32:40.250Z,16.77
2023-02-06T08:35:08.434Z,24.05
2023-02-06T08:37:36.296Z,14.88
2023-02-06T08:40:04.331Z,20.45
2023-02-06T08:42:31.963Z,16.08
2023-02-06T08:44:59.846Z,21.13
2023-02-06T08:47:27.747Z,18.58
2023-02-06T08:49:55.715Z,19.05
2023-02-06T08:52:23.700Z,18.08
2023-02-06T08:54:53.106Z,18.42
2023-02-06T08:57:20.868Z,16.95
2023-02-06T08:59:49.850Z,13.73
2023-02-06T09:02:17.943Z,23.08
2023-02-06T09:04:45.992Z,15.63
2023-02-06T09:07:17.626Z,13.57
2023-02-06T09:09:45.464Z,16.63
2023-02-06T09:12:13.477Z,15.15
2023-02-06T09:14:41.208Z,13.18
2023-02-06T09:17:09.224Z,14.75
2023-02-06T09:19:37.149Z,15.90
2023-02-06T09:22:06.940Z,17.08
2023-02-06T09:24:38.823Z,14.60
2023-02-06T09:27:06.871Z,17.73
2023-02-06T09:29:34.949Z,23.70
2023-02-06T09:32:02.878Z,17.73
2023-02-06T09:34:30.861Z,18.90
2023-02-06T09:36:58.904Z,17.40
2023-02-06T09:39:27.230Z,14.23
2023-02-06T09:41:58.189Z,18.20
2023-02-06T09:44:40.813Z,15.45
2023-02-06T09:47:23.873Z,16.95
2023-02-06T09:50:07.969Z,14.27
2023-02-06T09:52:41.639Z,13.48
2023-02-06T09:55:33.676Z,15.20
2023-02-06T09:58:23.004Z,15.55
2023-02-06T10:01:11.650Z,13.38
2023-02-06T10:04:13.305Z,16.70
2023-02-06T10:06:54.563Z,16.75
2023-02-06T10:09:29.722Z,14.98
2023-02-06T10:12:05.699Z,12.20
2023-02-06T10:14:45.936Z,13.07
2023-02-06T10:17:36.273Z,12.90
2023-02-06T10:20:07.401Z,11.93
2023-02-06T10:22:50.255Z,12.18
2023-02-06T10:25:25.819Z,10.88
2023-02-06T10:28:16.930Z,10.23
2023-02-06T10:31:07.725Z,12.82
2023-02-06T10:33:52.370Z,10.73
2023-02-06T10:36:41.111Z,10.68
2023-02-06T10:39:39.862Z,12.40
2023-02-06T10:42:24.430Z,11.73
2023-02-06T10:45:16.994Z,6.22
2023-02-06T10:47:55.358Z,6.40
2023-02-06T10:50:28.102Z,8.40
2023-02-06T10:52:59.787Z,8.00
2023-02-06T10:56:09.205Z,10.90
2023-02-06T10:58:37.238Z,11.57
2023-02-06T11:01:20.212Z,8.00
2023-02-06T11:04:16.157Z,6.50
2023-02-06T11:06:47.031Z,7.82
2023-02-06T11:09:15.720Z,7.63
2023-02-06T11:11:48.525Z,9.90
2023-02-06T11:14:37.968Z,7.38
2023-02-06T11:17:05.843Z,9.75
2023-02-06T11:19:44.458Z,7.40
2023-02-06T11:22:15.837Z,6.63
2023-02-06T11:25:03.800Z,8.48
2023-02-06T11:27:33.663Z,6.70
2023-02-06T11:30:09.571Z,11.05
2023-02-06T11:32:52.761Z,8.43
2023-02-06T11:35:26.895Z,9.07
2023-02-06T11:38:05.560Z,10.02
2023-02-06T11:40:33.565Z,7.82
2023-02-06T11:43:48.476Z,6.82
2023-02-06T11:46:24.814Z,10.00
2023-02-06T11:48:55.504Z,5.93
2023-02-06T11:51:27.523Z,5.65
2023-02-06T11:54:02.749Z,7.95
2023-02-06T11:56:32.130Z,5.30
2023-02-06T11:59:17.345Z,7.53
2023-02-06T12:01:47.902Z,5.45
2023-02-06T12:04:38.653Z,6.75
2023-02-06T12:07:14.703Z,5.63
2023-02-06T12:09:42.729Z,8.98
2023-02-06T12:12:22.676Z,5.15
2023-02-06T12:14:54.946Z,6.35
2023-02-06T12:17:48.898Z,6.93
2023-02-06T12:20:19.380Z,7.35
2023-02-06T12:22:52.508Z,4.80
2023-02-06T12:25:38.972Z,5.53
2023-02-06T12:28:36.304Z,4.18
2023-02-06T12:31:24.953Z,3.85
2023-02-06T12:33:56.875Z,4.35
2023-02-06T12:39:06.507Z,3.45
2023-02-06T12:41:58.811Z,4.38
2023-02-06T12:44:59.432Z,3.38
2023-02-06T12:47:37.582Z,3.60
2023-02-06T12:50:28.886Z,2.53
2023-02-06T12:53:26.479Z,3.65
2023-02-06T12:56:18.277Z,4.88
2023-02-06T12:58:46.888Z,2.70
2023-02-06T13:01:45.568Z,5.28
2023-02-06T13:04:30.537Z,5.97
2023-02-06T13:07:08.723Z,4.43
2023-02-06T13:09:41.905Z,4.30
2023-02-06T13:12:29.746Z,4.22
2023-02-06T13:15:06.825Z,4.00
2023-02-06T13:17:45.364Z,5.20
2023-02-06T13:20:17.416Z,4.88
2023-02-06T13:22:47.190Z,20.58
2023-02-06T13:25:46.621Z,4.20
2023-02-06T13:28:23.588Z,5.90
2023-02-06T13:31:00.577Z,3.97
2023-02-06T13:33:43.897Z,4.45
2023-02-06T13:36:21.110Z,9.93
2023-02-06T13:38:48.963Z,4.75
2023-02-06T13:41:17.541Z,4.85
2023-02-06T13:43:57.100Z,4.10
2023-02-06T13:46:31.413Z,4.10
2023-02-06T13:49:24.020Z,3.10
2023-02-06T13:52:05.280Z,4.55
2023-02-06T13:54:57.340Z,3.67
2023-02-06T13:57:44.050Z,4.72
2023-02-06T14:00:31.433Z,5.07
2023-02-06T14:03:30.518Z,4.35
2023-02-06T14:06:40.193Z,4.45
2023-02-06T14:09:46.087Z,4.38
2023-02-06T14:12:50.953Z,3.17
2023-02-06T14:15:39.024Z,5.90
2023-02-06T14:18:28.774Z,3.40
2023-02-06T14:20:56.646Z,4.45
2023-02-06T14:23:57.093Z,4.50
2023-02-06T14:27:09.212Z,5.03
2023-02-06T14:29:48.825Z,6.43
2023-02-06T14:32:31.233Z,5.45
2023-02-06T14:35:04.997Z,5.80
2023-02-06T14:37:55.463Z,5.22
2023-02-06T14:40:33.766Z,3.13
2023-02-06T14:43:07.536Z,3.47
2023-02-06T14:45:42.634Z,6.00
2023-02-06T14:48:21.405Z,4.50
2023-02-06T14:50:56.522Z,2.90
2023-02-06T14:53:31.887Z,4.28
2023-02-06T14:56:25.403Z,6.45
2023-02-06T14:58:53.599Z,4.70
2023-02-06T15:01:29.631Z,6.47
2023-02-06T15:04:16.522Z,9.60
2023-02-06T15:07:00.314Z,4.45
2023-02-06T15:09:32.351Z,3.45
2023-02-06T15:12:03.999Z,3.17
2023-02-06T15:14:34.736Z,2.95
2023-02-06T15:17:03.712Z,3.38
2023-02-06T15:19:33.689Z,3.55
2023-02-06T15:22:10.578Z,3.40
2023-02-06T15:24:47.455Z,4.45
2023-02-06T15:27:30.866Z,3.88
2023-02-06T15:29:59.528Z,3.40
2023-02-06T15:32:32.716Z,3.35
2023-02-06T15:35:01.651Z,3.85
2023-02-06T15:37:36.145Z,4.32
2023-02-06T15:40:13.107Z,4.35
2023-02-06T15:42:40.985Z,4.88
2023-02-06T15:45:26.181Z,4.05
2023-02-06T15:47:55.909Z,4.07
2023-02-06T15:50:27.547Z,3.90
2023-02-06T15:52:56.272Z,4.93
2023-02-06T15:55:33.438Z,4.03
2023-02-06T15:58:04.244Z,3.22
2023-02-06T16:00:36.982Z,4.25
2023-02-06T16:03:08.842Z,2.33
2023-02-06T16:05:43.333Z,3.70
2023-02-06T16:08:25.633Z,4.35
2023-02-06T16:11:26.200Z,3.97
2023-02-06T16:14:00.133Z,5.05
2023-02-06T16:16:28.702Z,4.40
2023-02-06T16:18:59.050Z,2.83
2023-02-06T16:21:30.140Z,4.88
2023-02-06T16:24:03.414Z,3.10
2023-02-06T16:26:42.611Z,2.50
2023-02-06T16:29:10.406Z,4.18
2023-02-06T16:31:41.067Z,4.50
2023-02-06T16:34:38.934Z,2.95
2023-02-06T16:37:12.669Z,5.68
2023-02-06T16:39:44.280Z,3.53
2023-02-06T16:42:18.266Z,4.10
2023-02-06T16:44:49.881Z,5.78
2023-02-06T16:47:20.184Z,2.80
2023-02-06T16:49:48.631Z,7.40
2023-02-06T16:52:20.171Z,4.40
2023-02-06T16:54:48.304Z,3.83
2023-02-06T16:57:36.702Z,3.70
2023-02-06T17:00:37.591Z,5.53
2023-02-06T17:03:06.300Z,3.08
2023-02-06T17:05:37.497Z,3.17
2023-02-06T17:08:17.905Z,4.78
2023-02-06T17:10:47.090Z,3.25
2023-02-06T17:13:20.274Z,3.30
2023-02-06T17:15:49.227Z,3.63
2023-02-06T17:18:18.721Z,3.80
2023-02-06T17:20:49.094Z,3.08
2023-02-06T17:23:17.586Z,3.40
2023-02-06T17:25:46.554Z,3.03
2023-02-06T17:28:16.940Z,3.33
2023-02-06T17:30:45.911Z,4.70
2023-02-06T17:33:13.807Z,4.18
2023-02-06T17:35:41.683Z,2.88
2023-02-06T17:38:10.548Z,4.45
2023-02-06T17:40:41.508Z,2.53
2023-02-06T17:43:09.870Z,4.03
2023-02-06T17:45:39.188Z,4.00
2023-02-06T17:48:07.875Z,2.67
2023-02-06T17:50:37.820Z,2.85
2023-02-06T17:53:07.288Z,3.08
2023-02-06T17:55:36.395Z,2.42
2023-02-06T17:58:04.577Z,3.92
2023-02-06T18:00:32.431Z,3.17
2023-02-06T18:03:00.891Z,2.08
2023-02-06T18:05:29.407Z,3.17
2023-02-06T18:07:57.329Z,1.88
2023-02-06T18:10:25.987Z,2.50
2023-02-06T18:12:56.871Z,3.15
2023-02-06T18:15:25.836Z,1.73
2023-02-06T18:17:55.011Z,2.20
2023-02-06T18:20:23.076Z,2.53
2023-02-06T18:22:51.229Z,1.90
2023-02-06T18:25:19.129Z,3.25
2023-02-06T18:27:47.041Z,1.70
2023-02-06T18:30:17.363Z,3.60
2023-02-06T18:32:45.230Z,3.28
2023-02-06T18:35:15.015Z,3.05
2023-02-06T18:37:43.876Z,2.03
2023-02-06T18:40:12.469Z,2.67
2023-02-06T18:42:53.598Z,3.88
2023-02-06T18:45:31.480Z,3.70
2023-02-06T18:47:59.415Z,2.25
2023-02-06T18:50:27.543Z,3.13
2023-02-06T18:52:55.648Z,2.67
2023-02-06T18:55:24.043Z,3.35
2023-02-06T18:57:53.174Z,3.45
2023-02-06T19:00:23.472Z,3.55
2023-02-06T19:02:51.738Z,2.72
2023-02-06T19:05:20.165Z,3.38
2023-02-06T19:07:52.680Z,2.97
2023-02-06T19:10:21.477Z,4.50
2023-02-06T19:12:49.429Z,2.95
2023-02-06T19:15:17.568Z,4.82
2023-02-06T19:17:45.300Z,3.55
2023-02-06T19:20:13.714Z,4.90
2023-02-06T19:22:41.369Z,2.75
2023-02-06T19:25:14.073Z,4.57
2023-02-06T19:27:42.379Z,5.30
2023-02-06T19:30:10.789Z,7.75
2023-02-06T19:32:38.552Z,7.03
2023-02-06T19:35:07.127Z,6.60
2023-02-06T19:37:35.041Z,7.72
2023-02-06T19:40:02.970Z,6.38
2023-02-06T19:42:30.676Z,5.55
2023-02-06T19:45:01.231Z,7.32
2023-02-06T19:47:32.287Z,6.65
2023-02-06T19:50:02.497Z,6.47
2023-02-06T19:52:30.351Z,5.18
2023-02-06T19:54:58.287Z,8.68
2023-02-06T19:57:33.957Z,8.52
2023-02-06T20:00:01.767Z,10.77
2023-02-06T20:02:29.555Z,10.93
2023-02-06T20:04:57.385Z,10.93
2023-02-06T20:07:25.332Z,9.65
2023-02-06T20:09:55.608Z,9.35
2023-02-06T20:12:24.206Z,7.20
2023-02-06T20:14:52.389Z,12.07
2023-02-06T20:17:20.167Z,9.35
2023-02-06T20:19:47.897Z,8.43
2023-02-06T20:22:15.940Z,8.48
2023-02-06T20:24:43.833Z,9.10
2023-02-06T20:27:13.043Z,8.43
2023-02-06T20:29:43.260Z,9.32
2023-02-06T20:32:12.238Z,8.00
2023-02-06T20:34:40.067Z,7.07
2023-02-06T20:37:07.894Z,8.88
2023-02-06T20:39:35.926Z,9.60
2023-02-06T20:42:03.668Z,9.32
2023-02-06T20:44:31.651Z,8.10
2023-02-06T20:46:59.684Z,7.57
2023-02-06T20:49:30.973Z,9.90
2023-02-06T20:52:03.471Z,7.95
2023-02-06T20:54:31.517Z,9.18
2023-02-06T20:57:00.531Z,10.05
2023-02-06T20:59:29.226Z,10.70
2023-02-06T21:01:57.275Z,10.23
2023-02-06T21:04:27.017Z,10.70
2023-02-06T21:06:55.697Z,14.60
2023-02-06T21:09:23.691Z,9.00
2023-02-06T21:11:51.615Z,11.57
2023-02-06T21:14:20.008Z,10.20
2023-02-06T21:16:49.845Z,10.77
2023-02-06T21:19:19.452Z,9.32
2023-02-06T21:21:47.758Z,10.77
2023-02-06T21:24:18.726Z,9.02
2023-02-06T21:26:46.824Z,9.32
2023-02-06T21:29:15.632Z,7.85
2023-02-06T21:31:43.868Z,10.48
2023-02-06T21:34:21.538Z,8.68
2023-02-06T21:36:50.324Z,9.93
2023-02-06T21:39:23.754Z,9.38
2023-02-06T21:41:53.893Z,8.82
2023-02-06T21:44:26.746Z,8.70
2023-02-06T21:46:56.178Z,9.60
2023-02-06T21:49:24.265Z,8.93
2023-02-06T21:51:53.602Z,8.50
2023-02-06T21:54:22.169Z,6.35
2023-02-06T21:56:50.174Z,7.05
2023-02-06T21:59:18.381Z,9.38
2023-02-06T22:01:46.253Z,7.70
2023-02-06T22:04:14.025Z,6.97
2023-02-06T22:06:42.017Z,8.48
2023-02-06T22:09:15.366Z,8.68
2023-02-06T22:11:43.620Z,7.82
2023-02-06T22:14:14.568Z,9.70
2023-02-06T22:16:48.853Z,6.93
2023-02-06T22:19:18.842Z,8.13
2023-02-06T22:21:46.713Z,7.72
2023-02-06T22:24:15.015Z,7.05
2023-02-06T22:26:46.345Z,6.78
2023-02-06T22:29:16.439Z,6.60
2023-02-06T22:31:45.399Z,6.50
2023-02-06T22:34:25.542Z,9.35
2023-02-06T22:36:53.485Z,7.55
2023-02-06T22:39:21.536Z,7.35
2023-02-06T22:41:50.252Z,9.85
2023-02-06T22:44:19.685Z,7.43
2023-02-06T22:46:50.314Z,8.98
2023-02-06T22:49:19.084Z,15.35
2023-02-06T22:51:47.078Z,12.38
2023-02-06T22:54:15.379Z,8.38
2023-02-06T22:56:44.075Z,13.05
2023-02-06T22:59:17.877Z,11.27
2023-02-06T23:01:50.937Z,12.50
2023-02-06T23:04:21.714Z,12.63
2023-02-06T23:06:50.540Z,13.98
2023-02-06T23:09:28.258Z,10.95
2023-02-06T23:11:58.549Z,15.02
2023-02-06T23:14:27.987Z,11.50
2023-02-06T23:16:56.116Z,11.13
2023-02-06T23:19:24.580Z,10.23
2023-02-06T23:21:53.008Z,15.70
2023-02-06T23:24:21.891Z,13.32
2023-02-06T23:26:51.266Z,12.98
2023-02-06T23:29:20.415Z,12.55
2023-02-06T23:31:49.229Z,13.25
2023-02-06T23:34:19.045Z,13.32
2023-02-06T23:36:48.557Z,13.88
2023-02-06T23:39:16.669Z,10.65
2023-02-06T23:41:44.723Z,11.02
2023-02-06T23:44:12.996Z,13.02
2023-02-06T23:46:41.574Z,11.70
2023-02-06T23:49:10.549Z,11.07
2023-02-06T23:51:38.700Z,10.55
2023-02-06T23:54:08.197Z,15.07
2023-02-06T23:56:36.175Z,10.40
2023-02-06T23:59:05.548Z,11.85
